Time;durP1;ratioP1;P1;durP2;ratioP2;P2;SDS_P1;SDS_P2;PMS_P1;PMS_P2;Temp;Humidity;BMP_temperature;BMP_pressure;BME280_temperature;BME280_humidity;BME280_pressure;Samples;Min_cycle;Max_cycle;Signal;HPM_P1;HPM_P2
2022/03/24 00:01:06;;;;;;;;;21.40;15.60;;;;;6.45;49.89;101177.25;5075451;28;8830;-62
2022/03/24 00:03:34;;;;;;;;;21.60;19.00;;;;;6.38;49.99;101172.31;5074636;28;8822;-63
2022/03/24 00:06:02;;;;;;;;;23.00;21.80;;;;;6.29;49.86;101167.41;5073194;28;8834;-62
2022/03/24 00:08:30;;;;;;;;;19.40;16.80;;;;;6.24;49.90;101167.59;5074484;28;8939;-62
2022/03/24 00:11:00;;;;;;;;;23.80;17.20;;;;;6.20;50.32;101167.78;5074994;28;8817;-62
2022/03/24 00:13:28;;;;;;;;;13.20;12.40;;;;;6.19;49.69;101163.41;5075454;28;8829;-63
2022/03/24 00:15:56;;;;;;;;;20.20;18.40;;;;;6.16;49.84;101167.03;5074589;28;8950;-62
2022/03/24 00:18:24;;;;;;;;;21.00;18.00;;;;;6.15;49.86;101157.38;5073805;28;9476;-63
2022/03/24 00:20:51;;;;;;;;;30.00;22.40;;;;;6.16;49.84;101155.63;5071898;28;8841;-62
2022/03/24 00:23:19;;;;;;;;;16.00;15.40;;;;;6.15;49.85;101153.91;5075372;28;8814;-62
2022/03/24 00:25:49;;;;;;;;;18.80;17.60;;;;;6.18;49.99;101156.41;5074679;28;8972;-62
2022/03/24 00:28:17;;;;;;;;;13.80;10.00;;;;;6.14;50.35;101152.19;5074738;28;8828;-62
2022/03/24 00:30:44;;;;;;;;;16.80;14.60;;;;;6.04;50.05;101150.84;5075018;28;8844;-62
2022/03/24 00:33:12;;;;;;;;;19.20;14.80;;;;;5.95;50.44;101151.22;5075492;28;8830;-63
2022/03/24 00:35:40;;;;;;;;;15.00;13.00;;;;;5.85;50.35;101149.91;5073417;28;9133;-62
2022/03/24 00:38:08;;;;;;;;;16.80;15.40;;;;;5.76;50.76;101150.25;5071652;28;8865;-63
2022/03/24 00:40:35;;;;;;;;;18.60;18.20;;;;;5.69;50.96;101152.25;5073636;28;8838;-62
2022/03/24 00:43:03;;;;;;;;;15.40;14.60;;;;;5.66;50.90;101154.16;5075157;28;8841;-63
2022/03/24 00:45:31;;;;;;;;;17.80;15.60;;;;;5.64;51.30;101142.81;5074077;28;8857;-62
2022/03/24 00:47:58;;;;;;;;;17.20;16.20;;;;;5.64;50.60;101145.44;5075056;28;8822;-62
2022/03/24 00:50:26;;;;;;;;;13.00;12.00;;;;;5.64;51.18;101145.44;5074170;28;8838;-63
2022/03/24 00:52:54;;;;;;;;;12.20;9.20;;;;;5.64;51.14;101150.72;5074852;28;8864;-62
2022/03/24 00:55:22;;;;;;;;;18.40;17.20;;;;;5.60;51.07;101149.13;5074729;28;8842;-62
2022/03/24 00:57:49;;;;;;;;;18.80;15.00;;;;;5.57;51.00;101149.25;5075338;28;8834;-62
2022/03/24 01:00:17;;;;;;;;;23.60;21.80;;;;;5.55;51.34;101151.09;5075328;28;8825;-62
2022/03/24 01:02:45;;;;;;;;;21.60;18.80;;;;;5.52;51.12;101140.63;5074808;28;8822;-62
2022/03/24 01:05:13;;;;;;;;;14.80;13.40;;;;;5.51;50.68;101144.22;5074667;28;9515;-62
2022/03/24 01:07:41;;;;;;;;;18.60;15.00;;;;;5.49;50.46;101148.69;5074359;28;8826;-62
2022/03/24 01:10:09;;;;;;;;;17.60;15.60;;;;;5.45;51.14;101145.31;5074685;28;8834;-62
2022/03/24 01:12:37;;;;;;;;;18.40;15.60;;;;;5.41;50.94;101148.16;5074386;28;8843;-62
2022/03/24 01:15:05;;;;;;;;;18.20;16.00;;;;;5.34;51.78;101144.91;5074792;28;9541;-63
2022/03/24 01:17:32;;;;;;;;;13.80;11.00;;;;;5.27;51.79;101139.91;5074534;28;8822;-62
2022/03/24 01:20:00;;;;;;;;;15.60;13.40;;;;;5.20;51.37;101143.69;5074397;28;8826;-62
2022/03/24 01:22:28;;;;;;;;;22.40;20.60;;;;;5.15;51.11;101140.34;5074739;28;9567;-62
2022/03/24 01:24:56;;;;;;;;;18.40;17.60;;;;;5.09;51.26;101141.47;5074283;28;8856;-61
2022/03/24 01:27:26;;;;;;;;;14.20;13.60;;;;;5.06;51.78;101141.59;5074204;28;8864;-62
2022/03/24 01:29:53;;;;;;;;;15.60;13.40;;;;;5.03;51.97;101139.03;5074627;28;8841;-62
2022/03/24 01:32:21;;;;;;;;;15.80;15.60;;;;;5.02;52.12;101132.06;5075200;28;8856;-61
2022/03/24 01:34:50;;;;;;;;;18.60;16.60;;;;;5.02;51.94;101132.06;5074072;28;8850;-62
2022/03/24 01:37:18;;;;;;;;;16.20;15.00;;;;;5.05;52.01;101133.72;5072642;28;8845;-63
2022/03/24 01:39:45;;;;;;;;;14.20;12.00;;;;;5.06;51.60;101133.66;5074007;28;8818;-62
2022/03/24 01:42:16;;;;;;;;;15.80;13.40;;;;;5.09;52.02;101133.53;5074679;28;8855;-61
2022/03/24 01:44:46;;;;;;;;;17.60;16.00;;;;;5.09;52.17;101130.91;5077037;28;8842;-62
2022/03/24 01:47:14;;;;;;;;;12.40;12.00;;;;;5.07;51.81;101126.59;5077908;28;9487;-62
2022/03/24 01:49:42;;;;;;;;;21.00;18.80;;;;;5.07;52.07;101131.88;5077683;28;8844;-61
2022/03/24 01:52:10;;;;;;;;;18.00;13.00;;;;;5.04;51.79;101132.00;5077738;28;8829;-61
2022/03/24 01:54:38;;;;;;;;;16.80;16.40;;;;;4.99;51.93;101129.53;5077659;28;8854;-62
2022/03/24 01:57:08;;;;;;;;;16.00;12.40;;;;;4.91;51.59;101125.47;5077398;28;8957;-62
2022/03/24 01:59:36;;;;;;;;;16.60;12.80;;;;;4.86;51.64;101123.00;5077852;28;8833;-63
2022/03/24 02:02:04;;;;;;;;;20.20;19.40;;;;;4.83;52.34;101123.13;5077465;28;8829;-62
2022/03/24 02:04:35;;;;;;;;;18.00;16.80;;;;;4.81;52.01;101127.59;5077381;28;8836;-61
2022/03/24 02:07:02;;;;;;;;;18.60;17.20;;;;;4.79;52.67;101128.56;5077278;28;8825;-63
2022/03/24 02:09:30;;;;;;;;;16.00;12.60;;;;;4.75;52.36;101114.63;5077737;28;8826;-62
2022/03/24 02:11:58;;;;;;;;;11.80;7.80;;;;;4.74;52.43;101125.25;5077407;28;8826;-62
2022/03/24 02:14:29;;;;;;;;;22.00;18.20;;;;;4.71;52.01;101117.44;5077239;28;8850;-62
2022/03/24 02:16:56;;;;;;;;;16.00;14.20;;;;;4.71;52.47;101112.19;5077332;28;8817;-63
2022/03/24 02:19:24;;;;;;;;;15.00;13.80;;;;;4.72;51.98;101121.81;5077616;28;8833;-61
2022/03/24 02:21:52;;;;;;;;;19.40;15.40;;;;;4.71;52.28;101117.44;5077633;28;8948;-63
2022/03/24 02:24:19;;;;;;;;;22.80;20.00;;;;;4.67;53.03;101123.75;5076967;28;8891;-62
2022/03/24 02:26:47;;;;;;;;;8.60;6.40;;;;;4.62;52.67;101125.69;5077510;28;8860;-62
2022/03/24 02:29:15;;;;;;;;;12.00;11.20;;;;;4.52;52.67;101119.03;5076948;28;8914;-62
2022/03/24 02:31:43;;;;;;;;;16.40;16.00;;;;;4.40;52.92;101111.56;5077018;28;8821;-63
2022/03/24 02:36:56;;;;;;;;;16.60;14.60;;;;;4.22;53.38;101112.22;5076717;28;9535;-62
2022/03/24 02:39:24;;;;;;;;;15.00;14.60;;;;;4.19;53.19;101110.53;5077274;28;8854;-62
2022/03/24 02:41:52;;;;;;;;;17.20;15.40;;;;;4.18;53.05;101115.88;5076870;28;8821;-63
2022/03/24 02:44:19;;;;;;;;;13.00;11.00;;;;;4.17;52.97;101120.28;5077344;28;8834;-61
2022/03/24 02:46:47;;;;;;;;;17.60;15.80;;;;;4.18;53.34;101113.25;5076344;28;8837;-63
2022/03/24 02:49:15;;;;;;;;;15.20;12.80;;;;;4.19;53.39;101118.44;5077302;28;9629;-62
2022/03/24 02:51:43;;;;;;;;;21.40;16.00;;;;;4.20;53.31;101116.69;5076929;28;8867;-63
2022/03/24 02:54:11;;;;;;;;;14.20;13.00;;;;;4.22;53.00;101120.13;5076283;28;8861;-62
2022/03/24 02:56:38;;;;;;;;;16.20;12.80;;;;;4.21;53.46;101114.00;5076273;28;8844;-62
2022/03/24 02:59:06;;;;;;;;;12.00;9.40;;;;;4.21;53.80;101113.13;5075959;28;8841;-61
2022/03/24 03:01:34;;;;;;;;;17.40;15.40;;;;;4.18;53.10;101110.63;5076267;28;8994;-62
2022/03/24 03:04:02;;;;;;;;;19.60;15.40;;;;;4.17;52.84;101114.13;5076519;28;8850;-62
2022/03/24 03:06:32;;;;;;;;;24.20;21.60;;;;;4.14;52.76;101120.41;5076248;28;8822;-62
2022/03/24 03:09:01;;;;;;;;;18.80;15.80;;;;;4.09;53.56;101116.19;5074853;28;8865;-62
2022/03/24 03:11:30;;;;;;;;;14.40;12.60;;;;;4.02;53.75;101122.56;5073908;28;8849;-62
2022/03/24 03:13:58;;;;;;;;;14.80;13.40;;;;;3.95;53.45;101116.66;5073041;28;8852;-61
2022/03/24 03:16:26;;;;;;;;;14.00;12.80;;;;;3.90;54.18;101125.63;5073754;28;9242;-62
2022/03/24 03:18:55;;;;;;;;;16.20;14.00;;;;;3.83;53.73;101127.63;5075912;28;8829;-62
2022/03/24 03:21:23;;;;;;;;;17.80;15.00;;;;;3.81;54.57;101120.69;5076147;28;8848;-62
2022/03/24 03:23:50;;;;;;;;;15.60;15.00;;;;;3.81;53.88;101124.16;5076206;28;8961;-62
2022/03/24 03:26:19;;;;;;;;;13.40;12.40;;;;;3.82;53.70;101122.41;5075830;28;8849;-62
2022/03/24 03:28:46;;;;;;;;;13.00;10.80;;;;;3.82;53.71;101123.25;5075952;28;9588;-62
2022/03/24 03:31:14;;;;;;;;;4.80;4.00;;;;;3.82;53.83;101127.66;5075803;28;8837;-62
2022/03/24 03:33:42;;;;;;;;;17.20;16.00;;;;;3.81;53.67;101126.78;5075543;28;8829;-63
2022/03/24 03:36:10;;;;;;;;;15.60;13.00;;;;;3.78;53.47;101126.03;5075809;28;8833;-61
2022/03/24 03:38:37;;;;;;;;;15.20;14.20;;;;;3.76;53.54;101125.22;5076505;28;8826;-62
2022/03/24 03:41:05;;;;;;;;;12.00;10.00;;;;;3.72;53.97;101131.50;5075439;28;8836;-61
2022/03/24 03:43:33;;;;;;;;;11.60;10.20;;;;;3.71;54.19;101126.31;5076023;28;8849;-62
2022/03/24 03:46:01;;;;;;;;;13.00;10.80;;;;;3.69;54.20;101126.34;5075723;28;8875;-62
2022/03/24 03:48:30;;;;;;;;;13.80;12.80;;;;;3.68;54.02;101132.53;5075814;28;8944;-62
2022/03/24 03:50:58;;;;;;;;;13.00;12.60;;;;;3.67;53.46;101133.44;5075647;28;8845;-63
2022/03/24 03:53:25;;;;;;;;;11.60;9.80;;;;;3.66;54.26;101129.09;5075331;28;8834;-63
2022/03/24 03:55:53;;;;;;;;;15.20;13.00;;;;;3.67;54.11;101134.28;5075477;28;8886;-62
2022/03/24 03:58:21;;;;;;;;;15.00;13.80;;;;;3.68;54.39;101135.16;5075481;28;8871;-62
2022/03/24 04:00:56;;;;;;;;;24.60;19.80;;;;;3.69;54.04;101131.59;5076158;28;8956;-62
2022/03/24 04:03:24;;;;;;;;;16.60;15.60;;;;;3.69;54.14;101136.88;5075519;28;8860;-62
2022/03/24 04:05:52;;;;;;;;;7.60;7.40;;;;;3.69;53.69;101128.97;5074464;28;8822;-62
2022/03/24 04:08:20;;;;;;;;;15.20;13.00;;;;;3.67;53.63;101131.66;5075545;28;8868;-62
2022/03/24 04:10:48;;;;;;;;;4.40;3.40;;;;;3.66;53.94;101130.84;5075562;28;8863;-62
2022/03/24 04:13:17;;;;;;;;;10.20;8.80;;;;;3.60;54.33;101131.91;5075257;28;8841;-62
2022/03/24 04:15:45;;;;;;;;;13.80;12.40;;;;;3.53;54.44;101127.75;5074886;28;8814;-62
2022/03/24 04:18:12;;;;;;;;;18.00;16.80;;;;;3.49;54.16;101143.69;5075070;28;8830;-63
2022/03/24 04:20:40;;;;;;;;;12.00;11.20;;;;;3.45;54.28;101132.41;5075479;28;9603;-62
2022/03/24 04:23:09;;;;;;;;;12.40;10.80;;;;;3.42;54.61;101137.75;5074616;28;8864;-61
2022/03/24 04:25:37;;;;;;;;;15.80;12.60;;;;;3.39;54.81;101137.84;5074981;28;8838;-62
2022/03/24 04:28:05;;;;;;;;;14.40;12.40;;;;;3.37;54.12;101128.28;5074492;28;8838;-63
2022/03/24 04:30:33;;;;;;;;;9.60;9.40;;;;;3.35;54.10;101130.97;5075124;28;8889;-62
2022/03/24 04:33:01;;;;;;;;;14.00;13.20;;;;;3.34;55.01;101133.66;5075017;28;8993;-62
2022/03/24 04:35:28;;;;;;;;;16.40;15.80;;;;;3.32;54.75;101125.78;5075228;28;8838;-62
2022/03/24 04:37:56;;;;;;;;;19.00;14.20;;;;;3.30;54.72;101125.00;5075171;28;8826;-63
2022/03/24 04:40:24;;;;;;;;;15.20;15.00;;;;;3.26;54.92;101125.97;5075407;28;8960;-62
2022/03/24 04:42:52;;;;;;;;;9.40;9.00;;;;;3.21;54.74;101130.53;5075159;28;8841;-62
2022/03/24 04:45:20;;;;;;;;;14.00;14.00;;;;;3.20;55.10;101136.72;5074700;28;8884;-62
2022/03/24 04:47:48;;;;;;;;;14.00;13.20;;;;;3.17;55.16;101123.63;5074759;28;8830;-62
2022/03/24 04:50:16;;;;;;;;;18.00;15.80;;;;;3.15;54.86;101121.97;5074481;28;8840;-62
2022/03/24 04:52:44;;;;;;;;;23.20;21.60;;;;;3.13;55.25;101124.66;5074838;28;8838;-62
2022/03/24 04:55:12;;;;;;;;;18.40;16.80;;;;;3.14;55.54;101129.00;5073762;28;9083;-63
2022/03/24 04:57:40;;;;;;;;;15.40;15.00;;;;;3.12;55.23;101122.94;5074517;28;9500;-63
2022/03/24 05:00:09;;;;;;;;;12.40;12.00;;;;;3.11;55.01;101126.44;5074936;28;8842;-62
2022/03/24 05:02:37;;;;;;;;;17.20;17.20;;;;;3.11;54.90;101130.88;5074702;28;8830;-62
2022/03/24 05:05:05;;;;;;;;;18.60;17.20;;;;;3.13;55.18;101127.28;5074817;28;8948;-63
2022/03/24 05:07:33;;;;;;;;;12.00;9.80;;;;;3.17;55.16;101121.00;5073530;28;8842;-63
2022/03/24 05:10:00;;;;;;;;;13.20;12.60;;;;;3.20;54.89;101127.94;5074110;28;8927;-62
2022/03/24 05:12:28;;;;;;;;;12.60;12.20;;;;;3.20;55.54;101135.84;5074551;28;8853;-62
2022/03/24 05:14:56;;;;;;;;;13.40;12.60;;;;;3.20;55.38;101127.94;5073864;28;8837;-63
2022/03/24 05:17:24;;;;;;;;;11.00;10.80;;;;;3.19;54.97;101134.97;5075927;28;8846;-63
2022/03/24 05:19:52;;;;;;;;;8.80;7.20;;;;;3.16;54.75;101135.06;5078804;28;8822;-62
2022/03/24 05:22:20;;;;;;;;;18.00;17.40;;;;;3.13;55.12;101134.31;5077867;28;8832;-62
2022/03/24 05:24:48;;;;;;;;;14.60;13.20;;;;;3.09;55.31;101137.97;5078300;28;8849;-62
2022/03/24 05:27:16;;;;;;;;;12.60;12.20;;;;;3.04;54.90;101132.81;5078069;28;8911;-62
2022/03/24 05:29:43;;;;;;;;;8.00;7.20;;;;;2.97;55.24;101139.19;5077770;28;8829;-63
2022/03/24 05:32:11;;;;;;;;;13.00;12.00;;;;;2.89;55.54;101135.88;5077005;28;8826;-62
2022/03/24 05:34:39;;;;;;;;;13.40;13.00;;;;;2.81;55.61;101142.31;5078559;28;8830;-62
2022/03/24 05:37:07;;;;;;;;;13.40;12.20;;;;;2.77;55.45;101141.53;5077978;28;8868;-62
2022/03/24 05:39:35;;;;;;;;;16.60;14.00;;;;;2.75;55.65;101137.22;5077028;28;8848;-62
2022/03/24 05:42:03;;;;;;;;;13.00;12.00;;;;;2.74;55.62;101141.59;5076418;28;8895;-63
2022/03/24 05:44:31;;;;;;;;;18.80;14.20;;;;;2.74;56.07;101143.38;5077667;28;8830;-62
2022/03/24 05:46:59;;;;;;;;;7.00;7.00;;;;;2.75;55.93;101140.72;5077292;28;8825;-62
2022/03/24 05:49:27;;;;;;;;;20.80;17.40;;;;;2.76;55.86;101142.44;5076917;28;8853;-62
2022/03/24 05:51:55;;;;;;;;;14.20;12.60;;;;;2.79;55.91;101137.06;5077607;28;8853;-62
2022/03/24 05:54:23;;;;;;;;;17.80;16.40;;;;;2.84;55.77;101136.94;5077339;28;8864;-63
2022/03/24 05:56:50;;;;;;;;;11.80;10.80;;;;;2.88;55.44;101131.53;5076451;28;8829;-62
2022/03/24 05:59:18;;;;;;;;;10.60;9.60;;;;;2.94;56.20;101131.38;5077402;28;8934;-62
2022/03/24 06:01:46;;;;;;;;;12.60;12.60;;;;;2.99;55.30;101132.09;5076435;28;8960;-64
2022/03/24 06:04:15;;;;;;;;;11.20;9.60;;;;;3.06;55.68;101138.03;5077529;28;8838;-63
2022/03/24 06:06:43;;;;;;;;;15.40;14.80;;;;;3.14;55.21;101141.28;5076907;28;8830;-63
2022/03/24 06:09:11;;;;;;;;;15.00;14.40;;;;;3.24;54.35;101137.50;5076631;28;8853;-62
2022/03/24 06:11:38;;;;;;;;;11.80;10.00;;;;;3.37;55.24;101138.81;5075880;28;8834;-62
2022/03/24 06:14:07;;;;;;;;;15.80;14.40;;;;;3.47;54.18;101146.38;5075120;28;8829;-62
2022/03/24 06:16:35;;;;;;;;;16.00;15.20;;;;;3.59;53.67;101145.13;5075280;28;8845;-63
2022/03/24 06:19:03;;;;;;;;;13.60;10.00;;;;;3.70;54.03;101143.03;5075375;28;8830;-64
2022/03/24 06:21:34;;;;;;;;;7.40;7.40;;;;;3.80;53.61;101140.88;5075166;28;8822;-62
2022/03/24 06:24:02;;;;;;;;;14.80;12.60;;;;;3.92;54.27;101147.50;5074490;28;8987;-62
2022/03/24 06:26:30;;;;;;;;;15.20;14.60;;;;;4.04;53.04;101152.38;5074528;28;8838;-62
2022/03/24 06:28:57;;;;;;;;;18.20;16.00;;;;;4.16;53.61;101147.56;5074787;28;8840;-63
2022/03/24 06:31:25;;;;;;;;;14.00;13.20;;;;;4.26;52.91;101145.47;5074903;28;9523;-63
2022/03/24 06:33:53;;;;;;;;;19.40;17.60;;;;;4.38;53.05;101139.75;5074974;28;8853;-62
2022/03/24 06:36:21;;;;;;;;;13.00;13.00;;;;;4.56;53.16;101147.03;5073676;28;8860;-63
2022/03/24 06:38:51;;;;;;;;;18.20;16.80;;;;;4.72;52.41;101149.03;5075618;28;8857;-63
2022/03/24 06:41:19;;;;;;;;;14.60;13.60;;;;;4.90;53.07;101139.56;5075549;28;8920;-63
2022/03/24 06:43:49;;;;;;;;;11.60;11.20;;;;;5.03;53.13;101140.84;5074411;28;8958;-62
2022/03/24 06:46:17;;;;;;;;;17.60;14.60;;;;;5.13;53.05;101136.94;5073840;28;8838;-62
2022/03/24 06:48:44;;;;;;;;;22.20;20.80;;;;;5.24;52.81;101134.75;5073981;28;8826;-63
2022/03/24 06:51:12;;;;;;;;;22.00;18.40;;;;;5.36;52.18;101137.75;5073900;28;8854;-62
2022/03/24 06:53:40;;;;;;;;;18.60;15.60;;;;;5.51;52.66;101142.44;5073672;28;8834;-62
2022/03/24 06:56:08;;;;;;;;;20.60;18.40;;;;;5.68;52.56;101147.06;5070998;28;8876;-62
2022/03/24 06:58:35;;;;;;;;;19.80;18.40;;;;;5.79;51.92;101142.19;5070428;28;8842;-63
2022/03/24 07:01:03;;;;;;;;;16.40;15.40;;;;;5.91;52.59;101145.22;5069683;28;9004;-63
2022/03/24 07:03:31;;;;;;;;;13.40;13.00;;;;;6.04;52.47;101134.97;5071293;28;8838;-63
2022/03/24 07:05:59;;;;;;;;;16.20;12.80;;;;;6.13;52.22;101143.38;5072921;28;8849;-63
2022/03/24 07:08:28;;;;;;;;;24.00;20.80;;;;;6.23;52.09;101138.56;5071270;28;9491;-63
2022/03/24 07:10:55;;;;;;;;;18.00;14.80;;;;;6.29;52.09;101138.31;5072905;28;8829;-62
2022/03/24 07:13:23;;;;;;;;;19.60;18.40;;;;;6.40;51.95;101141.34;5073190;28;8845;-62
2022/03/24 07:15:51;;;;;;;;;21.60;20.80;;;;;6.51;51.87;101144.41;5073565;28;8935;-63
2022/03/24 07:18:19;;;;;;;;;16.20;14.60;;;;;6.61;51.90;101143.91;5073826;28;9491;-62
2022/03/24 07:20:46;;;;;;;;;21.40;17.20;;;;;6.71;51.92;101137.28;5073349;28;8848;-62
2022/03/24 07:23:15;;;;;;;;;20.20;15.60;;;;;6.86;51.49;101141.00;5074025;28;8837;-64
2022/03/24 07:25:42;;;;;;;;;21.20;17.60;;;;;7.01;50.82;101145.63;5070933;28;8873;-63
2022/03/24 07:28:11;;;;;;;;;20.60;19.00;;;;;7.15;50.55;101144.06;5073198;28;8829;-62
2022/03/24 07:30:40;;;;;;;;;26.40;22.00;;;;;7.27;50.91;101148.78;5073452;28;8838;-62
2022/03/24 07:33:09;;;;;;;;;15.60;15.60;;;;;7.40;50.58;101149.03;5074284;28;9534;-63
2022/03/24 07:35:37;;;;;;;;;25.60;24.80;;;;;7.53;50.53;101148.41;5073641;28;8833;-62
2022/03/24 07:38:04;;;;;;;;;23.00;21.00;;;;;7.67;50.57;101156.56;5073266;28;8864;-62
2022/03/24 07:40:32;;;;;;;;;18.00;14.80;;;;;7.83;49.69;101157.53;5071780;28;8974;-62
2022/03/24 07:43:00;;;;;;;;;20.40;19.80;;;;;7.99;49.69;101147.88;5073819;28;8830;-63
2022/03/24 07:45:28;;;;;;;;;15.00;11.40;;;;;8.18;49.43;101149.53;5074286;28;8975;-63
2022/03/24 07:47:56;;;;;;;;;15.40;15.40;;;;;8.39;49.16;101152.91;5073062;28;9208;-62
2022/03/24 07:50:23;;;;;;;;;22.80;21.60;;;;;8.62;48.90;101148.13;5073026;28;8845;-63
2022/03/24 07:52:51;;;;;;;;;21.00;20.60;;;;;8.84;48.56;101147.84;5073381;28;9487;-63
2022/03/24 07:55:19;;;;;;;;;17.80;15.60;;;;;9.08;48.46;101139.44;5073256;28;8864;-62
2022/03/24 07:57:47;;;;;;;;;21.00;18.00;;;;;9.32;48.09;101147.84;5073328;28;8849;-62
2022/03/24 08:00:15;;;;;;;;;24.60;23.00;;;;;9.54;47.78;101143.03;5072087;28;8895;-62
2022/03/24 08:02:42;;;;;;;;;27.40;20.20;;;;;9.75;47.53;101152.47;5072677;28;8834;-63
2022/03/24 08:05:10;;;;;;;;;26.20;21.40;;;;;9.90;47.76;101143.63;5073946;28;8861;-62
2022/03/24 08:07:38;;;;;;;;;24.20;22.80;;;;;10.06;47.34;101144.47;5073408;28;8834;-63
2022/03/24 08:10:08;;;;;;;;;24.00;21.00;;;;;10.24;46.69;101146.91;5073059;28;8944;-63
2022/03/24 08:12:35;;;;;;;;;29.40;27.00;;;;;10.41;46.88;101148.59;5072617;28;8854;-63
2022/03/24 08:15:03;;;;;;;;;29.20;25.60;;;;;10.56;46.79;101145.00;5063388;28;8876;-63
2022/03/24 08:17:30;;;;;;;;;27.00;23.60;;;;;10.68;46.94;101147.78;5072036;28;8830;-63
2022/03/24 08:19:58;;;;;;;;;26.40;25.80;;;;;10.82;46.59;101146.94;5072569;28;8960;-63
2022/03/24 08:22:26;;;;;;;;;27.80;21.80;;;;;10.96;46.19;101141.59;5072166;28;8845;-63
2022/03/24 08:24:54;;;;;;;;;22.20;19.40;;;;;11.10;46.10;101145.16;5072063;28;8892;-63
2022/03/24 08:27:22;;;;;;;;;26.40;24.00;;;;;11.23;45.68;101148.72;5072090;28;8825;-63
2022/03/24 08:29:49;;;;;;;;;26.20;25.00;;;;;11.40;45.78;101151.22;5071494;28;8849;-63
2022/03/24 08:32:17;;;;;;;;;26.40;24.20;;;;;11.61;45.36;101147.19;5071871;28;8860;-62
2022/03/24 08:34:45;;;;;;;;;27.60;26.80;;;;;11.77;45.58;101153.25;5071572;28;9523;-62
2022/03/24 08:37:13;;;;;;;;;24.20;22.20;;;;;11.92;44.84;101154.06;5072004;28;8852;-63
2022/03/24 08:39:41;;;;;;;;;28.20;23.80;;;;;12.05;44.90;101148.66;5070699;28;8848;-62
2022/03/24 08:42:08;;;;;;;;;31.00;29.20;;;;;12.19;44.63;101151.28;5069801;28;8876;-62
2022/03/24 08:44:36;;;;;;;;;22.75;19.50;;;;;12.35;44.56;101140.41;5069595;28;8849;-62
2022/03/24 08:47:05;;;;;;;;;28.50;25.75;;;;;12.50;44.43;101144.69;5070243;28;8856;-62
2022/03/24 08:49:32;;;;;;;;;25.00;22.00;;;;;12.66;44.17;101148.91;5070427;28;9218;-62
2022/03/24 08:52:00;;;;;;;;;24.60;21.60;;;;;12.94;43.49;101146.06;5071129;28;8841;-63
2022/03/24 08:54:28;;;;;;;;;30.00;27.25;;;;;13.28;43.61;101139.19;5075088;28;8881;-63
2022/03/24 08:56:56;;;;;;;;;32.00;29.00;;;;;13.70;43.10;101144.06;5075045;28;8853;-63
2022/03/24 08:59:24;;;;;;;;;29.50;27.50;;;;;14.16;42.46;101142.38;5074827;28;8841;-64
2022/03/24 09:01:51;;;;;;;;;26.00;23.25;;;;;14.62;42.03;101144.16;5073133;28;8837;-63
2022/03/24 09:04:23;;;;;;;;;23.50;21.25;;;;;15.00;41.34;101135.78;5073821;28;8833;-62
2022/03/24 09:06:51;;;;;;;;;29.00;27.50;;;;;15.36;41.35;101136.47;5074785;28;8932;-62
2022/03/24 09:09:20;;;;;;;;;34.50;32.50;;;;;15.69;40.75;101144.47;5073530;28;8830;-62
2022/03/24 09:11:47;;;;;;;;;26.75;24.00;;;;;16.03;40.36;101147.91;5075073;28;8829;-63
2022/03/24 09:14:15;;;;;;;;;34.00;31.25;;;;;16.30;39.95;101141.09;5074276;28;8857;-63
2022/03/24 09:16:43;;;;;;;;;36.75;32.00;;;;;16.60;39.97;101142.06;5075241;28;8927;-63
2022/03/24 09:19:16;;;;;;;;;37.50;32.25;;;;;16.83;39.53;101132.88;5073908;28;8838;-62
2022/03/24 09:21:44;;;;;;;;;31.25;28.50;;;;;17.00;39.13;101131.41;5075310;28;8974;-62
2022/03/24 09:24:12;;;;;;;;;35.50;32.50;;;;;17.14;39.22;101131.03;5072514;28;8853;-62
2022/03/24 09:26:40;;;;;;;;;28.75;25.25;;;;;17.22;39.65;101142.84;5071108;28;8830;-63
2022/03/24 09:29:08;;;;;;;;;27.50;26.50;;;;;17.26;39.75;101141.63;5071832;28;8864;-62
2022/03/24 09:31:36;;;;;;;;;38.00;31.50;;;;;17.23;39.66;101136.47;5072900;28;9611;-63
2022/03/24 09:34:05;;;;;;;;;44.00;41.00;;;;;17.20;39.73;101134.06;5071809;28;8841;-63
2022/03/24 09:36:33;;;;;;;;;37.25;30.25;;;;;17.18;39.79;101138.75;5072093;28;9705;-63
2022/03/24 09:39:00;;;;;;;;;45.50;42.25;;;;;17.17;40.32;101139.69;5074533;28;8837;-62
2022/03/24 09:41:28;;;;;;;;;43.00;40.25;;;;;17.17;39.77;101134.31;5074336;28;8860;-62
2022/03/24 09:43:57;;;;;;;;;45.25;38.75;;;;;17.18;40.39;101136.06;5074073;28;8976;-62
2022/03/24 09:46:25;;;;;;;;;46.25;39.50;;;;;17.13;40.10;101134.72;5075444;28;8849;-62
2022/03/24 09:48:53;;;;;;;;;42.75;37.75;;;;;17.01;40.30;101139.34;5074058;28;8860;-62
2022/03/24 09:51:20;;;;;;;;;47.00;38.00;;;;;16.94;40.61;101138.16;5075155;28;8830;-63
2022/03/24 09:53:48;;;;;;;;;53.00;45.00;;;;;16.95;40.64;101145.25;5074901;28;8849;-62
2022/03/24 09:56:16;;;;;;;;;40.25;33.50;;;;;16.98;40.04;101139.63;5075285;28;8834;-63
2022/03/24 09:58:44;;;;;;;;;48.75;45.00;;;;;17.04;40.46;101140.91;5074446;28;8859;-63
2022/03/24 10:01:17;;;;;;;;;42.00;41.00;;;;;17.15;39.86;101141.69;5075261;28;8983;-62
2022/03/24 10:03:45;;;;;;;;;51.00;46.50;;;;;17.38;40.03;101140.53;5073481;28;8869;-63
2022/03/24 10:06:14;;;;;;;;;42.00;38.75;;;;;17.68;39.43;101143.19;5073870;28;8881;-62
2022/03/24 10:08:42;;;;;;;;;46.33;43.00;;;;;18.24;38.69;101138.91;5074654;28;8868;-62
2022/03/24 10:11:09;;;;;;;;;45.00;42.00;;;;;19.07;37.53;101144.50;5074232;28;8855;-62
2022/03/24 10:13:37;;;;;;;;;47.00;45.00;;;;;20.06;36.16;101135.50;5073152;28;9609;-63
2022/03/24 10:16:05;;;;;;;;;48.75;45.50;;;;;20.93;35.42;101127.34;5075032;28;8959;-62
2022/03/24 10:18:33;;;;;;;;;45.50;42.25;;;;;21.71;34.29;101128.97;5074652;28;8849;-63
2022/03/24 10:21:01;;;;;;;;;44.25;38.00;;;;;22.44;33.45;101126.25;5074163;28;9515;-62
2022/03/24 10:23:29;;;;;;;;;54.75;46.00;;;;;23.05;32.73;101123.81;5075498;28;8822;-68
2022/03/24 10:25:57;;;;;;;;;52.75;44.00;;;;;23.72;32.24;101127.88;5074088;28;8854;-65
2022/03/24 10:28:27;;;;;;;;;41.75;38.50;;;;;24.30;32.15;101117.34;5073262;28;8972;-63
2022/03/24 10:30:58;;;;;;;;;48.60;40.80;;;;;24.85;31.39;101112.47;5072438;28;8833;-63
2022/03/24 10:33:26;;;;;;;;;43.20;40.40;;;;;25.35;31.10;101107.19;5070905;28;8825;-63
2022/03/24 10:35:54;;;;;;;;;43.00;38.60;;;;;25.82;30.78;101112.03;5073614;28;8989;-62
2022/03/24 10:38:22;;;;;;;;;57.00;44.20;;;;;26.25;30.23;101111.09;5072719;28;8860;-63
2022/03/24 10:40:52;;;;;;;;;42.60;36.20;;;;;26.64;29.93;101111.50;5072641;28;8841;-63
2022/03/24 10:43:20;;;;;;;;;43.40;38.40;;;;;27.03;29.79;101105.50;5073477;28;8842;-63
2022/03/24 10:45:48;;;;;;;;;47.40;40.60;;;;;27.43;28.68;101108.31;5073173;28;8855;-62
2022/03/24 10:48:15;;;;;;;;;39.40;31.00;;;;;27.66;29.10;101108.88;5072973;28;8845;-62
2022/03/24 10:50:44;;;;;;;;;48.60;38.20;;;;;27.90;28.74;101102.88;5073103;28;8880;-63
2022/03/24 10:53:12;;;;;;;;;42.00;35.40;;;;;28.09;28.10;101104.84;5072679;28;9527;-62
2022/03/24 10:55:40;;;;;;;;;45.40;38.60;;;;;28.12;28.04;101104.44;5072989;28;8880;-62
2022/03/24 10:58:08;;;;;;;;;49.60;43.80;;;;;28.23;28.68;101092.00;5072762;28;9523;-63
2022/03/24 11:00:36;;;;;;;;;46.40;38.20;;;;;28.46;27.85;101100.72;5071954;28;8845;-62
2022/03/24 11:03:04;;;;;;;;;45.40;39.20;;;;;28.59;28.04;101100.75;5073032;28;8934;-61
2022/03/24 11:05:32;;;;;;;;;51.40;42.40;;;;;28.71;27.73;101088.94;5069255;28;9266;-62
2022/03/24 11:08:00;;;;;;;;;43.40;37.60;;;;;28.93;27.61;101092.28;5070191;28;8833;-60
2022/03/24 11:10:33;;;;;;;;;50.40;40.20;;;;;29.13;27.60;101098.63;5072180;28;8817;-60
2022/03/24 11:13:01;;;;;;;;;44.40;38.00;;;;;29.27;27.36;101089.31;5071917;28;9508;-60
2022/03/24 11:15:28;;;;;;;;;49.60;40.60;;;;;29.37;27.57;101090.56;5069561;28;8841;-60
2022/03/24 11:17:56;;;;;;;;;52.80;42.00;;;;;29.51;27.55;101085.91;5072119;28;8915;-61
2022/03/24 11:20:24;;;;;;;;;37.20;35.20;;;;;29.66;27.14;101079.06;5069093;28;8829;-60
2022/03/24 11:22:52;;;;;;;;;43.40;38.00;;;;;29.71;26.88;101082.00;5069628;28;9535;-60
2022/03/24 11:25:20;;;;;;;;;44.80;39.00;;;;;29.69;26.88;101081.38;5070264;28;8871;-60
2022/03/24 11:27:48;;;;;;;;;41.60;34.60;;;;;29.86;26.95;101084.47;5071455;28;8830;-61
2022/03/24 11:30:16;;;;;;;;;49.40;40.40;;;;;30.18;26.33;101070.56;5071464;28;8837;-61